Time;durP1;ratioP1;P1;durP2;ratioP2;P2;SDS_P1;SDS_P2;PMS_P1;PMS_P2;Temp;Humidity;BMP_temperature;BMP_pressure;BME280_temperature;BME280_humidity;BME280_pressure;Samples;Min_cycle;Max_cycle;Signal;HPM_P1;HPM_P2
2021/11/09 00:00:12;;;;;;;18.30;14.68;;;;;;;;;;5052668;28;20579;-83
2021/11/09 00:02:39;;;;;;;18.88;14.25;;;;;;;;;;5053548;28;20115;-77
2021/11/09 00:05:07;;;;;;;18.95;13.80;;;;;;;;;;5053849;28;20021;-80
2021/11/09 00:08:19;;;;;;;19.02;15.02;;;;;;;;;;5053475;28;20063;-79
2021/11/09 00:10:28;;;;;;;19.17;15.05;;;;;;;;;;5050216;28;20025;-80
2021/11/09 00:12:55;;;;;;;19.15;15.00;;;;;;;;;;5052214;28;20476;-79
2021/11/09 00:15:22;;;;;;;19.73;15.02;;;;;;;;;;5053415;28;20095;-81
2021/11/09 00:17:50;;;;;;;19.45;14.52;;;;;;;;;;5053725;28;20032;-78
2021/11/09 00:20:17;;;;;;;17.58;14.07;;;;;;;;;;5052972;28;20060;-79
2021/11/09 00:22:44;;;;;;;17.38;13.38;;;;;;;;;;5052175;28;20032;-80
2021/11/09 00:25:10;;;;;;;18.80;14.05;;;;;;;;;;5053256;28;20024;-79
2021/11/09 00:27:36;;;;;;;17.58;14.80;;;;;;;;;;5053460;28;20056;-78
2021/11/09 00:30:03;;;;;;;14.95;12.20;;;;;;;;;;5053430;28;20392;-81
2021/11/09 00:32:29;;;;;;;16.42;13.75;;;;;;;;;;5053127;28;20032;-78
2021/11/09 00:34:55;;;;;;;18.58;13.82;;;;;;;;;;5053359;28;20029;-77
2021/11/09 00:37:21;;;;;;;17.88;13.98;;;;;;;;;;5052995;28;20029;-81
2021/11/09 00:39:48;;;;;;;17.75;14.02;;;;;;;;;;5053131;28;20028;-76
2021/11/09 00:42:14;;;;;;;18.02;13.05;;;;;;;;;;5052822;28;20150;-77
2021/11/09 00:44:41;;;;;;;17.70;13.70;;;;;;;;;;5053185;28;20060;-80
2021/11/09 00:47:08;;;;;;;17.73;13.90;;;;;;;;;;5051742;28;20033;-76
2021/11/09 00:49:34;;;;;;;17.90;13.30;;;;;;;;;;5052883;28;20021;-79
2021/11/09 00:52:01;;;;;;;16.75;13.02;;;;;;;;;;5051567;28;20045;-82
2021/11/09 00:54:28;;;;;;;24.48;13.88;;;;;;;;;;5052588;28;20051;-80
2021/11/09 00:56:54;;;;;;;23.02;14.82;;;;;;;;;;5051699;28;20469;-80
2021/11/09 00:59:20;;;;;;;17.65;13.85;;;;;;;;;;5052552;28;20495;-79
2021/11/09 01:01:47;;;;;;;19.42;13.55;;;;;;;;;;5051491;28;20021;-79
2021/11/09 01:04:13;;;;;;;18.45;13.18;;;;;;;;;;5052658;28;20032;-76
2021/11/09 01:06:39;;;;;;;17.15;13.40;;;;;;;;;;5051514;28;20052;-82
2021/11/09 01:09:06;;;;;;;19.30;13.23;;;;;;;;;;5052223;28;20025;-79
2021/11/09 01:11:33;;;;;;;17.27;14.23;;;;;;;;;;5052019;28;20056;-82
2021/11/09 01:14:00;;;;;;;16.95;12.15;;;;;;;;;;5052610;28;20486;-77
2021/11/09 01:16:26;;;;;;;17.73;13.60;;;;;;;;;;5052312;28;20036;-80
2021/11/09 01:18:54;;;;;;;16.73;13.68;;;;;;;;;;5052563;28;20064;-77
2021/11/09 01:21:20;;;;;;;17.80;12.43;;;;;;;;;;5051990;28;20072;-82
2021/11/09 01:23:49;;;;;;;16.15;12.18;;;;;;;;;;5052557;28;20033;-74
2021/11/09 01:26:16;;;;;;;15.48;11.93;;;;;;;;;;5050929;28;20112;-77
2021/11/09 01:28:43;;;;;;;14.27;11.57;;;;;;;;;;5052399;28;20033;-74
2021/11/09 01:31:09;;;;;;;17.38;12.93;;;;;;;;;;5051230;28;20049;-75
2021/11/09 01:33:36;;;;;;;17.85;12.80;;;;;;;;;;5052183;28;20029;-79
2021/11/09 01:36:02;;;;;;;14.13;11.02;;;;;;;;;;5052426;28;20031;-80
2021/11/09 01:38:28;;;;;;;13.32;11.27;;;;;;;;;;5051952;28;20029;-84
2021/11/09 01:40:55;;;;;;;15.68;11.60;;;;;;;;;;5052363;28;20032;-83
2021/11/09 01:43:22;;;;;;;14.38;10.23;;;;;;;;;;5052133;28;20031;-76
2021/11/09 01:45:49;;;;;;;16.75;11.15;;;;;;;;;;5050957;28;20041;-77
2021/11/09 01:48:16;;;;;;;15.90;12.05;;;;;;;;;;5052136;28;20029;-75
2021/11/09 01:50:45;;;;;;;14.70;10.65;;;;;;;;;;5051979;28;20025;-79
2021/11/09 01:53:12;;;;;;;13.90;10.40;;;;;;;;;;5052135;28;20055;-80
2021/11/09 01:55:39;;;;;;;14.32;10.73;;;;;;;;;;5050695;28;20037;-81
2021/11/09 01:58:06;;;;;;;15.95;11.27;;;;;;;;;;5052066;28;20104;-80
2021/11/09 02:00:44;;;;;;;12.88;10.48;;;;;;;;;;5050612;28;20037;-78
2021/11/09 02:03:10;;;;;;;13.93;11.18;;;;;;;;;;5051787;28;20032;-78
2021/11/09 02:05:36;;;;;;;13.63;10.77;;;;;;;;;;5052080;28;20036;-82
2021/11/09 02:08:03;;;;;;;12.05;10.73;;;;;;;;;;5052091;28;20064;-83
2021/11/09 02:10:31;;;;;;;13.32;10.27;;;;;;;;;;5050689;28;20044;-86
2021/11/09 02:12:57;;;;;;;13.98;11.68;;;;;;;;;;5051922;28;20036;-78
2021/11/09 02:15:24;;;;;;;12.68;10.30;;;;;;;;;;5051685;28;20455;-78
2021/11/09 02:17:50;;;;;;;12.02;10.70;;;;;;;;;;5051932;28;20108;-77
2021/11/09 02:20:19;;;;;;;11.05;9.45;;;;;;;;;;5051732;28;20103;-78
2021/11/09 02:22:46;;;;;;;13.25;10.15;;;;;;;;;;5054396;28;20068;-75
2021/11/09 02:25:14;;;;;;;13.93;10.50;;;;;;;;;;5055563;28;20032;-79
2021/11/09 02:27:41;;;;;;;12.07;9.82;;;;;;;;;;5055668;28;20029;-81
2021/11/09 02:30:09;;;;;;;12.27;9.68;;;;;;;;;;5055486;28;20021;-76
2021/11/09 02:32:36;;;;;;;13.15;10.15;;;;;;;;;;5055424;28;20055;-80
2021/11/09 02:35:02;;;;;;;11.63;10.25;;;;;;;;;;5055445;28;20031;-82
2021/11/09 02:37:29;;;;;;;12.43;10.18;;;;;;;;;;5055305;28;20029;-77
2021/11/09 02:39:57;;;;;;;13.88;9.70;;;;;;;;;;5055336;28;20033;-76
2021/11/09 02:42:24;;;;;;;11.65;10.38;;;;;;;;;;5055101;28;20116;-78
2021/11/09 02:44:52;;;;;;;14.52;10.68;;;;;;;;;;5055328;28;20029;-79
2021/11/09 02:47:19;;;;;;;14.40;10.27;;;;;;;;;;5054966;28;20491;-75
2021/11/09 02:52:32;;;;;;;11.85;10.20;;;;;;;;;;5055142;28;20067;-76
2021/11/09 02:55:05;;;;;;;13.32;10.10;;;;;;;;;;5054859;28;20579;-77
2021/11/09 02:57:43;;;;;;;12.43;9.82;;;;;;;;;;5053611;28;20083;-80
2021/11/09 03:00:35;;;;;;;12.45;10.05;;;;;;;;;;5055096;28;20029;-80
2021/11/09 03:03:03;;;;;;;13.00;10.60;;;;;;;;;;5054509;28;20078;-81
2021/11/09 03:05:42;;;;;;;13.38;10.75;;;;;;;;;;5054317;28;20063;-78
2021/11/09 03:10:52;;;;;;;13.35;10.60;;;;;;;;;;5054821;28;20468;-80
2021/11/09 03:13:19;;;;;;;11.30;9.05;;;;;;;;;;5054517;28;20173;-77
2021/11/09 03:15:45;;;;;;;13.82;9.73;;;;;;;;;;5054719;28;20052;-79
2021/11/09 03:18:14;;;;;;;11.93;9.35;;;;;;;;;;5054407;28;20059;-84
2021/11/09 03:20:57;;;;;;;12.85;9.95;;;;;;;;;;5053111;28;20064;-77
2021/11/09 03:45:27;;;;;;;13.82;10.20;;;;;;;;;;5054091;28;20083;-75
2021/11/09 03:47:56;;;;;;;17.48;12.75;;;;;;;;;;5053937;28;20039;-85
2021/11/09 03:50:25;;;;;;;15.20;11.23;;;;;;;;;;5054059;28;20036;-79
2021/11/09 03:53:05;;;;;;;12.38;9.30;;;;;;;;;;5053657;28;20554;-75
2021/11/09 04:03:31;;;;;;;14.98;11.75;;;;;;;;;;5053666;28;20032;-79
2021/11/09 04:17:11;;;;;;;10.52;8.65;;;;;;;;;;5053310;28;20040;-82
2021/11/09 04:19:46;;;;;;;11.40;9.20;;;;;;;;;;5053456;28;20498;-78
2021/11/09 04:25:12;;;;;;;10.63;8.90;;;;;;;;;;5053335;28;19905;-77
2021/11/09 04:33:37;;;;;;;12.88;8.88;;;;;;;;;;5053116;28;20048;-78
2021/11/09 05:02:59;;;;;;;17.35;11.43;;;;;;;;;;5052565;28;20039;-81
2021/11/09 05:08:27;;;;;;;17.23;12.45;;;;;;;;;;5052853;28;20494;-78
2021/11/09 05:10:56;;;;;;;16.08;11.20;;;;;;;;;;5052621;28;20079;-83
2021/11/09 05:13:22;;;;;;;15.10;11.73;;;;;;;;;;5051120;28;20119;-79
2021/11/09 05:15:49;;;;;;;12.68;10.52;;;;;;;;;;5052540;28;20055;-76
2021/11/09 05:18:15;;;;;;;13.75;10.70;;;;;;;;;;5052368;28;20100;-79
2021/11/09 05:20:41;;;;;;;15.35;10.77;;;;;;;;;;5052379;28;20507;-76
2021/11/09 05:23:08;;;;;;;14.20;11.38;;;;;;;;;;5052252;28;20060;-84
2021/11/09 05:25:35;;;;;;;15.98;11.23;;;;;;;;;;5051318;28;20092;-84
2021/11/09 05:28:02;;;;;;;15.00;10.45;;;;;;;;;;5051039;28;20028;-78
2021/11/09 05:30:28;;;;;;;12.43;9.73;;;;;;;;;;5052487;28;20057;-82
2021/11/09 05:32:58;;;;;;;11.88;8.85;;;;;;;;;;5052172;28;20029;-78
2021/11/09 05:35:25;;;;;;;13.75;9.93;;;;;;;;;;5052264;28;20033;-76
2021/11/09 05:37:53;;;;;;;16.38;10.80;;;;;;;;;;5052343;28;20033;-81
2021/11/09 05:40:26;;;;;;;15.93;11.40;;;;;;;;;;5052232;28;20032;-76
2021/11/09 05:42:52;;;;;;;14.98;11.05;;;;;;;;;;5052453;28;20075;-74
2021/11/09 05:45:18;;;;;;;12.68;9.57;;;;;;;;;;5052069;28;20075;-78
2021/11/09 05:47:44;;;;;;;12.07;9.05;;;;;;;;;;5052243;28;20025;-76
2021/11/09 05:50:11;;;;;;;11.60;8.85;;;;;;;;;;5052148;28;20112;-80
2021/11/09 05:52:37;;;;;;;11.85;8.90;;;;;;;;;;5052097;28;20128;-76
2021/11/09 05:55:04;;;;;;;12.90;9.60;;;;;;;;;;5051811;28;20036;-80
2021/11/09 05:57:30;;;;;;;12.63;8.85;;;;;;;;;;5055704;28;20024;-81
2021/11/09 05:59:57;;;;;;;11.73;8.90;;;;;;;;;;5055037;28;20033;-83
2021/11/09 06:02:23;;;;;;;11.65;7.93;;;;;;;;;;5056131;28;20158;-80
2021/11/09 06:04:52;;;;;;;13.00;10.05;;;;;;;;;;5056144;28;20037;-81
2021/11/09 06:07:18;;;;;;;12.32;9.50;;;;;;;;;;5054849;28;20040;-75
2021/11/09 06:09:44;;;;;;;12.52;9.20;;;;;;;;;;5055985;28;20021;-77
2021/11/09 06:12:10;;;;;;;10.48;8.68;;;;;;;;;;5055734;28;20400;-83
2021/11/09 06:14:36;;;;;;;9.85;7.97;;;;;;;;;;5055696;28;20529;-80
2021/11/09 06:17:03;;;;;;;10.65;7.53;;;;;;;;;;5055581;28;20032;-80
2021/11/09 06:19:29;;;;;;;14.23;8.85;;;;;;;;;;5055583;28;20029;-80
2021/11/09 06:21:55;;;;;;;11.10;8.23;;;;;;;;;;5054147;28;20084;-86
2021/11/09 06:24:23;;;;;;;10.48;8.25;;;;;;;;;;5055022;28;20415;-78
2021/11/09 06:26:49;;;;;;;16.02;12.77;;;;;;;;;;5049411;28;20087;-74
2021/11/09 06:29:16;;;;;;;11.63;9.93;;;;;;;;;;5053171;28;20059;-80
2021/11/09 06:31:43;;;;;;;12.32;10.20;;;;;;;;;;5050663;28;20056;-80
2021/11/09 06:34:09;;;;;;;13.10;9.57;;;;;;;;;;5045159;28;20034;-77
2021/11/09 06:36:35;;;;;;;14.20;10.32;;;;;;;;;;5035954;28;20037;-80
2021/11/09 06:39:02;;;;;;;14.48;10.73;;;;;;;;;;5052704;28;20060;-81
2021/11/09 06:41:28;;;;;;;10.95;8.63;;;;;;;;;;5054351;28;20305;-82
2021/11/09 06:43:55;;;;;;;11.35;9.23;;;;;;;;;;5051563;28;20389;-82
2021/11/09 06:46:21;;;;;;;18.25;14.75;;;;;;;;;;5054583;28;20025;-78
2021/11/09 06:48:48;;;;;;;11.48;10.00;;;;;;;;;;5054324;28;20025;-82
2021/11/09 06:51:15;;;;;;;13.02;9.70;;;;;;;;;;5054628;28;20025;-76
2021/11/09 06:53:42;;;;;;;12.15;8.85;;;;;;;;;;5054456;28;20475;-77
2021/11/09 06:56:08;;;;;;;9.05;7.35;;;;;;;;;;5053247;28;20443;-79
2021/11/09 06:58:35;;;;;;;15.80;11.30;;;;;;;;;;5053777;28;20060;-78
2021/11/09 07:01:01;;;;;;;13.05;9.85;;;;;;;;;;5053932;28;20032;-79
2021/11/09 07:03:28;;;;;;;11.13;8.35;;;;;;;;;;5053194;28;20074;-81
2021/11/09 07:05:54;;;;;;;10.30;7.40;;;;;;;;;;5054003;28;20029;-81
2021/11/09 07:08:20;;;;;;;9.95;7.43;;;;;;;;;;5051856;28;20028;-77
2021/11/09 07:10:47;;;;;;;9.90;6.78;;;;;;;;;;5053902;28;20049;-80
2021/11/09 07:13:13;;;;;;;8.57;7.18;;;;;;;;;;5053951;28;20507;-79
2021/11/09 07:15:40;;;;;;;10.90;7.25;;;;;;;;;;5053863;28;20369;-76
2021/11/09 07:18:07;;;;;;;11.07;7.80;;;;;;;;;;5052818;28;20388;-84
2021/11/09 07:20:36;;;;;;;10.20;8.18;;;;;;;;;;5053841;28;20053;-80
2021/11/09 07:23:03;;;;;;;7.95;6.50;;;;;;;;;;5053785;28;20445;-82
2021/11/09 07:25:30;;;;;;;8.55;7.63;;;;;;;;;;5054128;28;20035;-79
2021/11/09 07:27:56;;;;;;;8.93;7.40;;;;;;;;;;5053418;28;20083;-80
2021/11/09 07:30:24;;;;;;;15.88;9.18;;;;;;;;;;5053800;28;20443;-79
2021/11/09 07:32:51;;;;;;;11.48;7.88;;;;;;;;;;5054037;28;20543;-80
2021/11/09 07:35:17;;;;;;;9.90;6.63;;;;;;;;;;5053472;28;20028;-80
2021/11/09 07:37:44;;;;;;;9.43;7.50;;;;;;;;;;5053120;28;20025;-79
2021/11/09 07:42:55;;;;;;;9.32;7.38;;;;;;;;;;5053399;28;20075;-79
2021/11/09 07:45:22;;;;;;;10.18;7.13;;;;;;;;;;5053254;28;20103;-82
2021/11/09 07:47:49;;;;;;;9.65;7.43;;;;;;;;;;5052122;28;20721;-79
2021/11/09 07:50:16;;;;;;;10.85;8.07;;;;;;;;;;5053302;28;20027;-75
2021/11/09 07:52:44;;;;;;;8.63;7.05;;;;;;;;;;5053427;28;20068;-80
2021/11/09 07:55:16;;;;;;;10.02;7.68;;;;;;;;;;5051898;28;20036;-80
2021/11/09 07:57:45;;;;;;;11.70;7.45;;;;;;;;;;5053198;28;20024;-80
2021/11/09 08:03:07;;;;;;;10.35;8.52;;;;;;;;;;5053450;28;20128;-79
2021/11/09 08:11:09;;;;;;;14.02;8.05;;;;;;;;;;5053029;28;20095;-79
2021/11/09 08:13:35;;;;;;;10.48;7.75;;;;;;;;;;5046310;28;20056;-76
2021/11/09 08:16:01;;;;;;;10.52;8.02;;;;;;;;;;5052516;28;20032;-78
2021/11/09 08:18:27;;;;;;;10.43;8.25;;;;;;;;;;5052599;28;20081;-80
2021/11/09 08:20:53;;;;;;;10.80;7.20;;;;;;;;;;5052691;28;20056;-80
2021/11/09 08:23:19;;;;;;;11.10;8.35;;;;;;;;;;5052649;28;20036;-78
2021/11/09 08:25:46;;;;;;;10.90;8.07;;;;;;;;;;5052632;28;20017;-79
2021/11/09 08:28:15;;;;;;;11.63;8.32;;;;;;;;;;5052265;28;20017;-82
2021/11/09 08:30:41;;;;;;;10.52;8.30;;;;;;;;;;5052572;28;20029;-80
2021/11/09 08:33:07;;;;;;;10.90;8.50;;;;;;;;;;5052575;28;20044;-81
2021/11/09 08:35:34;;;;;;;10.98;7.72;;;;;;;;;;5052459;28;20020;-83
2021/11/09 08:38:00;;;;;;;9.10;7.18;;;;;;;;;;5052597;28;20025;-72
2021/11/09 08:40:27;;;;;;;10.27;7.63;;;;;;;;;;5052366;28;20036;-75
2021/11/09 08:42:58;;;;;;;9.85;8.05;;;;;;;;;;5049287;28;20089;-75
2021/11/09 08:47:54;;;;;;;9.75;7.78;;;;;;;;;;5052268;28;20137;-79
2021/11/09 08:50:22;;;;;;;10.25;7.78;;;;;;;;;;5051919;28;20060;-81
2021/11/09 08:52:49;;;;;;;10.18;7.95;;;;;;;;;;5052254;28;20043;-78
2021/11/09 08:55:43;;;;;;;9.73;8.07;;;;;;;;;;5051613;28;20078;-80
2021/11/09 08:58:20;;;;;;;10.25;8.38;;;;;;;;;;5051462;28;20029;-82
2021/11/09 09:06:16;;;;;;;13.93;8.75;;;;;;;;;;5051519;28;20036;-75
2021/11/09 09:08:42;;;;;;;12.48;10.23;;;;;;;;;;5044246;28;20021;-76
2021/11/09 09:11:08;;;;;;;13.48;10.32;;;;;;;;;;5032172;28;20032;-77
2021/11/09 09:13:35;;;;;;;9.00;7.47;;;;;;;;;;5031673;28;20049;-79
2021/11/09 09:16:01;;;;;;;10.10;9.05;;;;;;;;;;5045396;28;20040;-73
2021/11/09 09:18:28;;;;;;;10.57;7.18;;;;;;;;;;5051644;28;20028;-77
2021/11/09 09:21:02;;;;;;;9.57;7.28;;;;;;;;;;5050100;28;20072;-75
2021/11/09 09:23:33;;;;;;;9.90;8.13;;;;;;;;;;5051772;28;20029;-79
2021/11/09 09:31:29;;;;;;;11.73;7.75;;;;;;;;;;5051083;28;20036;-76
2021/11/09 09:56:32;;;;;;;12.00;8.82;;;;;;;;;;5032409;28;19911;-79
2021/11/09 09:58:56;;;;;;;10.50;7.18;;;;;;;;;;5034496;28;20033;-80
2021/11/09 10:01:22;;;;;;;12.57;7.38;;;;;;;;;;5051336;28;20128;-77
2021/11/09 10:03:49;;;;;;;9.88;7.85;;;;;;;;;;5051095;28;20029;-79
2021/11/09 10:06:15;;;;;;;10.55;8.15;;;;;;;;;;5051780;28;20044;-75
2021/11/09 10:09:00;;;;;;;9.50;7.25;;;;;;;;;;5050822;28;20028;-79
2021/11/09 10:11:26;;;;;;;;;;;;;;;;;;5051578;28;20051;-78
2021/11/09 10:13:52;;;;;;;11.63;8.25;;;;;;;;;;5051015;28;19967;-75
2021/11/09 10:16:21;;;;;;;9.43;7.22;;;;;;;;;;5051157;28;20060;-77
2021/11/09 10:18:47;;;;;;;11.68;7.07;;;;;;;;;;5050901;28;20057;-77
2021/11/09 10:21:13;;;;;;;10.27;7.43;;;;;;;;;;5050938;28;20053;-79
2021/11/09 10:23:40;;;;;;;10.55;7.72;;;;;;;;;;5050727;28;20029;-79
2021/11/09 10:26:15;;;;;;;8.32;6.65;;;;;;;;;;5050913;28;20056;-79
2021/11/09 10:28:42;;;;;;;9.15;7.15;;;;;;;;;;5049430;28;20037;-76
2021/11/09 10:31:09;;;;;;;10.30;7.18;;;;;;;;;;5051291;28;20025;-78
2021/11/09 10:33:40;;;;;;;9.05;7.20;;;;;;;;;;5050340;28;20392;-80
2021/11/09 10:36:27;;;;;;;11.77;8.20;;;;;;;;;;5051214;28;20078;-79
2021/11/09 10:38:53;;;;;;;16.75;8.57;;;;;;;;;;5049945;28;20029;-78
2021/11/09 10:41:19;;;;;;;9.07;7.50;;;;;;;;;;5051162;28;20021;-78
2021/11/09 10:43:45;;;;;;;8.10;6.55;;;;;;;;;;5052076;28;20160;-80
2021/11/09 10:46:41;;;;;;;11.95;7.22;;;;;;;;;;5043617;28;20369;-83
2021/11/09 10:49:08;;;;;;;;;;;;;;;;;;5040748;28;20392;-80
2021/11/09 10:51:58;;;;;;;11.45;6.65;;;;;;;;;;5047559;28;19905;-78
2021/11/09 10:54:44;;;;;;;10.75;7.65;;;;;;;;;;5043618;28;20377;-76
2021/11/09 10:57:21;;;;;;;12.60;6.80;;;;;;;;;;5053084;28;20120;-78
2021/11/09 10:59:59;;;;;;;11.88;7.80;;;;;;;;;;5054165;28;20021;-81
2021/11/09 11:05:22;;;;;;;12.88;7.95;;;;;;;;;;5053050;28;20511;-77
2021/11/09 11:08:07;;;;;;;12.10;7.65;;;;;;;;;;5052757;28;20029;-78
2021/11/09 11:10:35;;;;;;;51.78;11.20;;;;;;;;;;5054233;28;20036;-80
2021/11/09 11:13:24;;;;;;;11.18;7.85;;;;;;;;;;5053571;28;20041;-79
2021/11/09 11:16:03;;;;;;;10.32;7.22;;;;;;;;;;5051397;28;20120;-77
2021/11/09 11:18:30;;;;;;;9.77;7.18;;;;;;;;;;5047898;28;20029;-79
2021/11/09 11:20:57;;;;;;;19.52;8.85;;;;;;;;;;5052435;28;20123;-77
2021/11/09 11:23:24;;;;;;;11.38;8.05;;;;;;;;;;5052397;28;20500;-79
2021/11/09 11:25:50;;;;;;;14.32;8.73;;;;;;;;;;5053560;28;20435;-78
2021/11/09 11:28:17;;;;;;;14.25;8.45;;;;;;;;;;5053854;28;20047;-76
2021/11/09 11:30:43;;;;;;;13.20;7.85;;;;;;;;;;5053673;28;20494;-78
2021/11/09 11:33:09;;;;;;;19.15;9.48;;;;;;;;;;5053406;28;20037;-80
2021/11/09 11:35:35;;;;;;;13.27;7.43;;;;;;;;;;5053791;28;20029;-69
2021/11/09 11:38:02;;;;;;;11.45;7.65;;;;;;;;;;5053511;28;20025;-77
2021/11/09 11:40:29;;;;;;;14.50;9.02;;;;;;;;;;5052161;28;20032;-78
2021/11/09 11:42:55;;;;;;;14.45;7.95;;;;;;;;;;5053223;28;20025;-80
2021/11/09 11:45:21;;;;;;;11.63;7.32;;;;;;;;;;5053620;28;20036;-78
2021/11/09 11:48:06;;;;;;;12.38;8.43;;;;;;;;;;5052274;28;20041;-74
2021/11/09 11:50:51;;;;;;;15.07;8.88;;;;;;;;;;5053777;28;20025;-82
2021/11/09 11:53:38;;;;;;;8.77;7.53;;;;;;;;;;5052832;28;20434;-79
2021/11/09 11:56:04;;;;;;;10.75;7.88;;;;;;;;;;5053288;28;20476;-76
2021/11/09 11:58:33;;;;;;;11.75;7.45;;;;;;;;;;5053199;28;20029;-77
2021/11/09 12:00:59;;;;;;;11.18;6.70;;;;;;;;;;5051605;28;20087;-82
2021/11/09 12:03:25;;;;;;;19.73;7.68;;;;;;;;;;5052967;28;20021;-77
2021/11/09 12:05:52;;;;;;;10.23;6.38;;;;;;;;;;5045449;28;20021;-80
2021/11/09 12:08:49;;;;;;;10.88;7.63;;;;;;;;;;5052945;28;20143;-80
2021/11/09 12:11:38;;;;;;;11.52;8.88;;;;;;;;;;5048187;28;20037;-78
2021/11/09 12:14:12;;;;;;;11.15;6.80;;;;;;;;;;5052978;28;20029;-80
2021/11/09 12:16:54;;;;;;;10.23;7.33;;;;;;;;;;5043528;28;20029;-79
2021/11/09 12:19:41;;;;;;;13.75;7.63;;;;;;;;;;5046021;28;20037;-80
2021/11/09 12:22:11;;;;;;;11.10;7.93;;;;;;;;;;5032631;28;20111;-80
2021/11/09 12:24:57;;;;;;;11.98;8.80;;;;;;;;;;5032568;28;20407;-80
2021/11/09 12:27:29;;;;;;;9.32;7.72;;;;;;;;;;5031426;28;20025;-78
2021/11/09 12:29:56;;;;;;;9.73;6.88;;;;;;;;;;5035466;28;20052;-77
2021/11/09 12:32:22;;;;;;;11.02;8.90;;;;;;;;;;5033383;28;20492;-80
2021/11/09 12:35:07;;;;;;;10.13;7.82;;;;;;;;;;5033482;28;20083;-76
2021/11/09 12:37:33;;;;;;;;;;;;;;;;;;5033698;28;20025;-76
2021/11/09 12:40:17;;;;;;;12.55;9.07;;;;;;;;;;5046005;28;20290;-81
2021/11/09 12:42:43;;;;;;;;;;;;;;;;;;5052824;28;20099;-76
2021/11/09 12:45:13;;;;;;;13.05;9.50;;;;;;;;;;5051243;28;19995;-77
2021/11/09 12:47:39;;;;;;;12.95;8.95;;;;;;;;;;5052315;28;20029;-79
2021/11/09 12:50:06;;;;;;;14.20;9.55;;;;;;;;;;5051282;28;20124;-81
2021/11/09 12:52:32;;;;;;;14.63;10.63;;;;;;;;;;5051576;28;20613;-78
2021/11/09 12:54:58;;;;;;;13.85;9.65;;;;;;;;;;5052270;28;20029;-76
2021/11/09 12:57:25;;;;;;;15.27;9.57;;;;;;;;;;5051582;28;20036;-81
2021/11/09 12:59:58;;;;;;;14.23;9.25;;;;;;;;;;5052046;28;20112;-77
2021/11/09 13:02:29;;;;;;;13.25;8.43;;;;;;;;;;5051393;28;20050;-81
2021/11/09 13:07:47;;;;;;;11.40;8.68;;;;;;;;;;5051781;28;20067;-78
2021/11/09 13:10:22;;;;;;;12.65;9.45;;;;;;;;;;5043873;28;20480;-80
2021/11/09 13:12:50;;;;;;;14.95;8.57;;;;;;;;;;5032046;28;20036;-80
2021/11/09 13:15:20;;;;;;;17.30;8.77;;;;;;;;;;5031859;28;20103;-77
2021/11/09 13:17:50;;;;;;;11.85;7.80;;;;;;;;;;5042640;28;20094;-78
2021/11/09 13:20:19;;;;;;;9.63;6.15;;;;;;;;;;5049657;28;20132;-79
2021/11/09 13:23:08;;;;;;;9.45;6.82;;;;;;;;;;5050072;28;20032;-80
2021/11/09 13:25:37;;;;;;;11.45;7.45;;;;;;;;;;5040200;28;20730;-78
2021/11/09 13:28:17;;;;;;;8.88;6.40;;;;;;;;;;5051542;28;20064;-79
2021/11/09 13:30:44;;;;;;;8.45;6.45;;;;;;;;;;5050782;28;20040;-77
2021/11/09 13:33:10;;;;;;;15.43;8.70;;;;;;;;;;5051363;28;20365;-75
2021/11/09 13:35:45;;;;;;;11.40;7.75;;;;;;;;;;5051422;28;20033;-78
2021/11/09 13:38:21;;;;;;;11.18;7.20;;;;;;;;;;5050991;28;20104;-79
2021/11/09 13:40:50;;;;;;;7.95;6.47;;;;;;;;;;5050528;28;20037;-80
2021/11/09 13:43:17;;;;;;;8.98;6.85;;;;;;;;;;5050144;28;20489;-76
2021/11/09 13:45:43;;;;;;;10.70;7.55;;;;;;;;;;5051505;28;20033;-81
2021/11/09 13:48:11;;;;;;;10.05;7.07;;;;;;;;;;5051739;28;20130;-80
2021/11/09 13:50:37;;;;;;;8.90;6.80;;;;;;;;;;5050944;28;20385;-78
2021/11/09 13:53:04;;;;;;;8.77;6.65;;;;;;;;;;5051386;28;20033;-79
2021/11/09 13:55:35;;;;;;;9.73;6.95;;;;;;;;;;5049266;28;20025;-85
2021/11/09 13:58:01;;;;;;;7.30;6.00;;;;;;;;;;5043114;28;20033;-80
2021/11/09 14:00:39;;;;;;;8.07;6.30;;;;;;;;;;5046814;28;20029;-79
2021/11/09 14:03:08;;;;;;;9.00;6.53;;;;;;;;;;5043175;28;20018;-78
2021/11/09 14:16:40;;;;;;;5.90;4.70;;;;;;;;;;5051602;28;20032;-78
2021/11/09 14:19:09;;;;;;;8.70;4.68;;;;;;;;;;5054939;28;20068;-78
2021/11/09 14:21:37;;;;;;;8.00;6.05;;;;;;;;;;5055079;28;20051;-76
2021/11/09 14:24:10;;;;;;;7.63;4.72;;;;;;;;;;5055126;28;20439;-77
2021/11/09 14:26:37;;;;;;;9.80;4.57;;;;;;;;;;5055014;28;20082;-78
2021/11/09 14:29:15;;;;;;;9.00;3.83;;;;;;;;;;5054563;28;20087;-77
2021/11/09 14:31:46;;;;;;;8.52;5.20;;;;;;;;;;5055687;28;20053;-79
2021/11/09 14:34:16;;;;;;;9.38;3.85;;;;;;;;;;5055677;28;20047;-78
2021/11/09 14:36:43;;;;;;;9.25;5.88;;;;;;;;;;5055704;28;20500;-81
2021/11/09 14:39:14;;;;;;;5.82;3.92;;;;;;;;;;5055189;28;20116;-80
2021/11/09 14:42:22;;;;;;;4.70;3.53;;;;;;;;;;5054307;28;20032;-75
2021/11/09 14:44:56;;;;;;;6.03;4.55;;;;;;;;;;5013666;28;20430;-79
2021/11/09 14:47:22;;;;;;;6.27;4.00;;;;;;;;;;5013588;28;20468;-77
2021/11/09 14:50:11;;;;;;;5.43;3.13;;;;;;;;;;5014201;28;20030;-79
2021/11/09 14:52:39;;;;;;;4.55;3.70;;;;;;;;;;5027494;28;20446;-75
2021/11/09 14:55:18;;;;;;;5.78;4.13;;;;;;;;;;5034535;28;20397;-82
2021/11/09 14:57:44;;;;;;;4.93;3.42;;;;;;;;;;5034639;28;20093;-78
2021/11/09 15:00:12;;;;;;;6.78;3.63;;;;;;;;;;5035557;28;20029;-75
2021/11/09 15:02:38;;;;;;;5.88;4.80;;;;;;;;;;5048155;28;20388;-76
2021/11/09 15:05:10;;;;;;;5.13;4.38;;;;;;;;;;5054764;28;20025;-78
2021/11/09 15:07:49;;;;;;;4.88;4.38;;;;;;;;;;5055068;28;20083;-77
2021/11/09 15:10:35;;;;;;;6.13;4.47;;;;;;;;;;5053962;28;20056;-76
2021/11/09 15:26:42;;;;;;;8.80;6.45;;;;;;;;;;5055349;28;20059;-78
2021/11/09 15:31:44;;;;;;;7.53;5.15;;;;;;;;;;5054458;28;20067;-78
2021/11/09 15:39:09;;;;;;;7.20;5.70;;;;;;;;;;5054211;28;20461;-75
2021/11/09 15:41:35;;;;;;;9.43;7.45;;;;;;;;;;5053415;28;20071;-74
2021/11/09 15:44:02;;;;;;;11.18;7.78;;;;;;;;;;5054413;28;20017;-76
2021/11/09 15:46:29;;;;;;;7.63;6.38;;;;;;;;;;5053975;28;20029;-73
2021/11/09 15:48:55;;;;;;;12.88;8.55;;;;;;;;;;5054024;28;20108;-74
2021/11/09 15:51:21;;;;;;;5.85;5.15;;;;;;;;;;5054542;28;20021;-79
2021/11/09 15:53:48;;;;;;;6.75;4.72;;;;;;;;;;5054358;28;20124;-82
2021/11/09 15:56:15;;;;;;;8.02;5.90;;;;;;;;;;5054130;28;20061;-82
2021/11/09 15:58:41;;;;;;;9.57;6.38;;;;;;;;;;5053125;28;20469;-81
2021/11/09 16:01:08;;;;;;;8.63;6.70;;;;;;;;;;5053692;28;20534;-82
2021/11/09 16:03:37;;;;;;;8.40;5.85;;;;;;;;;;5054226;28;20045;-73
2021/11/09 16:06:05;;;;;;;7.53;6.10;;;;;;;;;;5053834;28;20028;-78
2021/11/09 16:08:33;;;;;;;6.80;4.90;;;;;;;;;;5053804;28;20451;-81
2021/11/09 16:11:04;;;;;;;6.93;5.82;;;;;;;;;;5053857;28;20029;-76
2021/11/09 16:13:30;;;;;;;7.72;5.18;;;;;;;;;;5053703;28;20036;-82
2021/11/09 16:15:57;;;;;;;8.20;6.03;;;;;;;;;;5053610;28;20112;-79
2021/11/09 16:18:23;;;;;;;7.93;5.38;;;;;;;;;;5053784;28;20033;-81
2021/11/09 16:20:50;;;;;;;7.28;6.25;;;;;;;;;;5053810;28;20060;-80
2021/11/09 16:23:18;;;;;;;8.13;5.13;;;;;;;;;;5052094;28;20086;-76
2021/11/09 16:25:44;;;;;;;7.80;4.72;;;;;;;;;;5053803;28;20036;-79
2021/11/09 16:28:10;;;;;;;6.93;5.68;;;;;;;;;;5053375;28;20107;-82
2021/11/09 16:30:37;;;;;;;5.88;5.25;;;;;;;;;;5053374;28;20033;-77
2021/11/09 16:33:12;;;;;;;7.20;5.65;;;;;;;;;;5051803;28;20042;-78
2021/11/09 16:38:41;;;;;;;7.22;5.40;;;;;;;;;;5041053;28;20036;-78
2021/11/09 16:41:10;;;;;;;9.27;6.53;;;;;;;;;;5052828;28;20094;-77
2021/11/09 16:48:33;;;;;;;7.60;5.93;;;;;;;;;;5053116;28;20025;-79
2021/11/09 16:53:46;;;;;;;;;;;;;;;;;;5053485;28;20051;-80
2021/11/09 16:56:34;;;;;;;7.93;5.72;;;;;;;;;;5052939;28;19997;-79
2021/11/09 17:13:18;;;;;;;6.82;5.25;;;;;;;;;;5052888;28;20083;-77
2021/11/09 18:22:17;;;;;;;9.57;8.05;;;;;;;;;;5055967;28;20067;-80
2021/11/09 18:24:44;;;;;;;9.77;8.57;;;;;;;;;;5055748;28;20056;-77
2021/11/09 18:27:10;;;;;;;10.90;9.68;;;;;;;;;;5056181;28;20070;-77
2021/11/09 18:29:37;;;;;;;9.23;7.63;;;;;;;;;;5055616;28;20028;-84
2021/11/09 18:32:05;;;;;;;9.23;7.47;;;;;;;;;;5054812;28;20403;-76
2021/11/09 18:34:32;;;;;;;10.05;7.80;;;;;;;;;;5055218;28;20547;-80
2021/11/09 18:37:01;;;;;;;8.98;7.22;;;;;;;;;;5056507;28;20033;-78
2021/11/09 18:39:27;;;;;;;11.68;7.80;;;;;;;;;;5055237;28;20388;-76
2021/11/09 18:41:55;;;;;;;7.85;7.05;;;;;;;;;;5056428;28;20016;-79
2021/11/09 18:44:21;;;;;;;7.63;6.32;;;;;;;;;;5056430;28;20059;-75
2021/11/09 18:46:47;;;;;;;8.23;7.20;;;;;;;;;;5056335;28;20047;-78
2021/11/09 18:49:16;;;;;;;8.10;6.57;;;;;;;;;;5055066;28;20380;-78
2021/11/09 18:51:43;;;;;;;7.10;5.72;;;;;;;;;;5056181;28;20021;-81
2021/11/09 18:54:09;;;;;;;7.65;6.22;;;;;;;;;;5056341;28;20033;-79
2021/11/09 18:56:36;;;;;;;9.15;7.40;;;;;;;;;;5056249;28;20032;-80
2021/11/09 18:59:02;;;;;;;9.88;8.32;;;;;;;;;;5056160;28;20471;-80
2021/11/09 19:01:28;;;;;;;8.68;7.43;;;;;;;;;;5056289;28;20494;-80
2021/11/09 19:03:55;;;;;;;8.23;6.28;;;;;;;;;;5054319;28;20044;-79